sensor_id;sensor_type;location;lat;lon;timestamp;P1;durP1;ratioP1;P2;durP2;ratioP2
16957;SDS011;8595;52.542;11.974;2023-07-29T00:01:31;7.80;;;7.10;;
16957;SDS011;8595;52.542;11.974;2023-07-29T00:03:58;8.38;;;7.47;;
16957;SDS011;8595;52.542;11.974;2023-07-29T00:06:26;7.82;;;7.03;;
16957;SDS011;8595;52.542;11.974;2023-07-29T00:08:53;8.63;;;7.72;;
16957;SDS011;8595;52.542;11.974;2023-07-29T00:11:20;8.52;;;7.82;;
16957;SDS011;8595;52.542;11.974;2023-07-29T00:13:46;8.63;;;7.82;;
16957;SDS011;8595;52.542;11.974;2023-07-29T00:16:16;9.98;;;8.90;;
16957;SDS011;8595;52.542;11.974;2023-07-29T00:18:46;9.43;;;8.63;;
16957;SDS011;8595;52.542;11.974;2023-07-29T00:21:13;8.40;;;7.60;;
16957;SDS011;8595;52.542;11.974;2023-07-29T00:23:40;9.43;;;8.35;;
16957;SDS011;8595;52.542;11.974;2023-07-29T00:26:07;11.27;;;9.20;;
16957;SDS011;8595;52.542;11.974;2023-07-29T00:28:34;36.72;;;16.90;;
16957;SDS011;8595;52.542;11.974;2023-07-29T00:31:01;10.65;;;9.65;;
16957;SDS011;8595;52.542;11.974;2023-07-29T00:33:29;9.98;;;9.07;;
16957;SDS011;8595;52.542;11.974;2023-07-29T00:35:56;13.70;;;10.38;;
16957;SDS011;8595;52.542;11.974;2023-07-29T00:38:26;10.80;;;9.70;;
16957;SDS011;8595;52.542;11.974;2023-07-29T00:40:53;11.48;;;10.35;;
16957;SDS011;8595;52.542;11.974;2023-07-29T00:43:20;10.85;;;9.85;;
16957;SDS011;8595;52.542;11.974;2023-07-29T00:45:47;10.95;;;9.65;;
16957;SDS011;8595;52.542;11.974;2023-07-29T00:48:14;11.45;;;10.25;;
16957;SDS011;8595;52.542;11.974;2023-07-29T00:50:42;10.30;;;9.32;;
16957;SDS011;8595;52.542;11.974;2023-07-29T00:53:10;13.88;;;9.57;;
16957;SDS011;8595;52.542;11.974;2023-07-29T00:55:37;48.65;;;10.75;;
16957;SDS011;8595;52.542;11.974;2023-07-29T00:58:04;25.60;;;10.23;;
16957;SDS011;8595;52.542;11.974;2023-07-29T01:00:31;62.35;;;8.88;;
16957;SDS011;8595;52.542;11.974;2023-07-29T01:02:57;140.45;;;12.02;;
16957;SDS011;8595;52.542;11.974;2023-07-29T01:05:25;9.75;;;8.82;;
16957;SDS011;8595;52.542;11.974;2023-07-29T01:08:03;16.27;;;9.38;;
16957;SDS011;8595;52.542;11.974;2023-07-29T01:10:38;39.03;;;8.73;;
16957;SDS011;8595;52.542;11.974;2023-07-29T01:13:13;131.75;;;10.05;;
16957;SDS011;8595;52.542;11.974;2023-07-29T01:15:46;128.57;;;9.38;;
16957;SDS011;8595;52.542;11.974;2023-07-29T01:18:20;47.83;;;10.70;;
16957;SDS011;8595;52.542;11.974;2023-07-29T01:20:49;15.73;;;10.60;;
16957;SDS011;8595;52.542;11.974;2023-07-29T01:23:24;9.20;;;8.25;;
16957;SDS011;8595;52.542;11.974;2023-07-29T01:25:52;14.70;;;13.10;;
16957;SDS011;8595;52.542;11.974;2023-07-29T01:28:18;14.35;;;12.88;;
16957;SDS011;8595;52.542;11.974;2023-07-29T01:30:45;11.60;;;10.10;;
16957;SDS011;8595;52.542;11.974;2023-07-29T01:33:20;10.60;;;9.60;;
16957;SDS011;8595;52.542;11.974;2023-07-29T01:35:53;9.15;;;8.35;;
16957;SDS011;8595;52.542;11.974;2023-07-29T01:38:28;16.77;;;8.15;;
16957;SDS011;8595;52.542;11.974;2023-07-29T01:40:56;8.73;;;7.80;;
16957;SDS011;8595;52.542;11.974;2023-07-29T01:43:26;8.60;;;7.80;;
16957;SDS011;8595;52.542;11.974;2023-07-29T01:45:54;10.02;;;8.27;;
16957;SDS011;8595;52.542;11.974;2023-07-29T01:48:21;10.77;;;9.70;;
16957;SDS011;8595;52.542;11.974;2023-07-29T01:50:48;10.00;;;9.00;;
16957;SDS011;8595;52.542;11.974;2023-07-29T01:53:15;9.60;;;8.65;;
16957;SDS011;8595;52.542;11.974;2023-07-29T01:55:43;9.05;;;8.25;;
16957;SDS011;8595;52.542;11.974;2023-07-29T01:58:10;10.02;;;9.00;;
16957;SDS011;8595;52.542;11.974;2023-07-29T02:00:38;8.77;;;8.02;;
16957;SDS011;8595;52.542;11.974;2023-07-29T02:03:05;9.63;;;8.15;;
16957;SDS011;8595;52.542;11.974;2023-07-29T02:05:31;9.18;;;8.00;;
16957;SDS011;8595;52.542;11.974;2023-07-29T02:07:58;10.38;;;9.27;;
16957;SDS011;8595;52.542;11.974;2023-07-29T02:10:25;9.65;;;8.70;;
16957;SDS011;8595;52.542;11.974;2023-07-29T02:12:53;9.57;;;7.18;;
16957;SDS011;8595;52.542;11.974;2023-07-29T02:15:20;10.88;;;8.18;;
16957;SDS011;8595;52.542;11.974;2023-07-29T02:17:49;9.82;;;8.68;;
16957;SDS011;8595;52.542;11.974;2023-07-29T02:20:17;11.32;;;9.25;;
16957;SDS011;8595;52.542;11.974;2023-07-29T02:22:44;10.07;;;9.07;;
16957;SDS011;8595;52.542;11.974;2023-07-29T02:25:11;7.72;;;6.93;;
16957;SDS011;8595;52.542;11.974;2023-07-29T02:27:38;9.77;;;8.88;;
16957;SDS011;8595;52.542;11.974;2023-07-29T02:30:07;10.60;;;8.88;;
16957;SDS011;8595;52.542;11.974;2023-07-29T02:32:35;10.07;;;8.40;;
16957;SDS011;8595;52.542;11.974;2023-07-29T02:35:02;10.52;;;8.70;;
16957;SDS011;8595;52.542;11.974;2023-07-29T02:37:30;8.57;;;7.68;;
16957;SDS011;8595;52.542;11.974;2023-07-29T02:39:57;10.68;;;8.55;;
16957;SDS011;8595;52.542;11.974;2023-07-29T02:42:24;10.30;;;9.30;;
16957;SDS011;8595;52.542;11.974;2023-07-29T02:44:51;9.70;;;8.80;;
16957;SDS011;8595;52.542;11.974;2023-07-29T02:47:19;10.25;;;9.25;;
16957;SDS011;8595;52.542;11.974;2023-07-29T02:49:46;10.25;;;9.02;;
16957;SDS011;8595;52.542;11.974;2023-07-29T02:52:13;8.23;;;7.53;;
16957;SDS011;8595;52.542;11.974;2023-07-29T02:54:40;8.73;;;7.93;;
16957;SDS011;8595;52.542;11.974;2023-07-29T02:57:07;10.13;;;9.13;;
16957;SDS011;8595;52.542;11.974;2023-07-29T02:59:34;10.27;;;8.27;;
16957;SDS011;8595;52.542;11.974;2023-07-29T03:02:01;13.10;;;9.23;;
16957;SDS011;8595;52.542;11.974;2023-07-29T03:04:29;10.48;;;9.15;;
16957;SDS011;8595;52.542;11.974;2023-07-29T03:06:56;10.25;;;9.07;;
16957;SDS011;8595;52.542;11.974;2023-07-29T03:09:24;10.30;;;9.20;;
16957;SDS011;8595;52.542;11.974;2023-07-29T03:11:51;11.40;;;10.30;;
16957;SDS011;8595;52.542;11.974;2023-07-29T03:14:19;11.48;;;10.40;;
16957;SDS011;8595;52.542;11.974;2023-07-29T03:16:47;9.98;;;8.60;;
16957;SDS011;8595;52.542;11.974;2023-07-29T03:19:17;9.38;;;8.40;;
16957;SDS011;8595;52.542;11.974;2023-07-29T03:21:45;10.45;;;9.30;;
16957;SDS011;8595;52.542;11.974;2023-07-29T03:24:12;10.85;;;9.65;;
16957;SDS011;8595;52.542;11.974;2023-07-29T03:26:39;12.15;;;11.02;;
16957;SDS011;8595;52.542;11.974;2023-07-29T03:29:06;10.88;;;9.88;;
16957;SDS011;8595;52.542;11.974;2023-07-29T03:31:33;11.18;;;9.98;;
16957;SDS011;8595;52.542;11.974;2023-07-29T03:34:00;11.55;;;10.05;;
16957;SDS011;8595;52.542;11.974;2023-07-29T03:36:27;9.82;;;8.93;;
16957;SDS011;8595;52.542;11.974;2023-07-29T03:38:56;12.27;;;11.02;;
16957;SDS011;8595;52.542;11.974;2023-07-29T03:41:23;10.70;;;9.70;;
16957;SDS011;8595;52.542;11.974;2023-07-29T03:43:50;11.98;;;10.88;;
16957;SDS011;8595;52.542;11.974;2023-07-29T03:46:17;13.10;;;9.80;;
16957;SDS011;8595;52.542;11.974;2023-07-29T03:48:44;12.18;;;10.43;;
16957;SDS011;8595;52.542;11.974;2023-07-29T03:51:11;16.83;;;14.82;;
16957;SDS011;8595;52.542;11.974;2023-07-29T03:53:38;14.43;;;12.48;;
16957;SDS011;8595;52.542;11.974;2023-07-29T03:56:06;13.77;;;11.40;;
16957;SDS011;8595;52.542;11.974;2023-07-29T03:58:34;13.75;;;12.20;;
16957;SDS011;8595;52.542;11.974;2023-07-29T04:00:59;10.77;;;9.65;;
16957;SDS011;8595;52.542;11.974;2023-07-29T04:03:26;13.27;;;11.88;;
16957;SDS011;8595;52.542;11.974;2023-07-29T04:05:53;11.43;;;10.32;;
16957;SDS011;8595;52.542;11.974;2023-07-29T04:08:20;13.13;;;11.82;;
16957;SDS011;8595;52.542;11.974;2023-07-29T04:10:47;13.75;;;12.35;;
16957;SDS011;8595;52.542;11.974;2023-07-29T04:13:17;12.00;;;10.80;;
16957;SDS011;8595;52.542;11.974;2023-07-29T04:15:44;9.90;;;8.70;;
16957;SDS011;8595;52.542;11.974;2023-07-29T04:18:11;11.50;;;9.93;;
16957;SDS011;8595;52.542;11.974;2023-07-29T04:20:38;13.40;;;11.93;;
16957;SDS011;8595;52.542;11.974;2023-07-29T04:23:05;14.00;;;12.48;;
16957;SDS011;8595;52.542;11.974;2023-07-29T04:25:32;14.05;;;11.15;;
16957;SDS011;8595;52.542;11.974;2023-07-29T04:27:59;20.35;;;13.18;;
16957;SDS011;8595;52.542;11.974;2023-07-29T04:30:29;13.27;;;11.15;;
16957;SDS011;8595;52.542;11.974;2023-07-29T04:32:57;11.63;;;10.35;;
16957;SDS011;8595;52.542;11.974;2023-07-29T04:35:23;14.98;;;13.07;;
16957;SDS011;8595;52.542;11.974;2023-07-29T04:37:51;15.68;;;12.85;;
16957;SDS011;8595;52.542;11.974;2023-07-29T04:40:18;13.50;;;12.20;;
16957;SDS011;8595;52.542;11.974;2023-07-29T04:42:44;15.02;;;13.43;;
16957;SDS011;8595;52.542;11.974;2023-07-29T04:45:11;13.98;;;11.95;;
16957;SDS011;8595;52.542;11.974;2023-07-29T04:47:41;12.98;;;11.68;;
16957;SDS011;8595;52.542;11.974;2023-07-29T04:50:08;17.25;;;15.55;;
16957;SDS011;8595;52.542;11.974;2023-07-29T04:52:35;16.55;;;13.52;;
16957;SDS011;8595;52.542;11.974;2023-07-29T04:55:04;14.68;;;13.13;;
16957;SDS011;8595;52.542;11.974;2023-07-29T04:57:32;16.88;;;13.52;;
16957;SDS011;8595;52.542;11.974;2023-07-29T04:59:59;18.05;;;14.77;;
16957;SDS011;8595;52.542;11.974;2023-07-29T05:02:27;15.48;;;12.98;;
16957;SDS011;8595;52.542;11.974;2023-07-29T05:04:56;17.85;;;15.35;;
16957;SDS011;8595;52.542;11.974;2023-07-29T05:07:23;17.02;;;15.20;;
16957;SDS011;8595;52.542;11.974;2023-07-29T05:09:49;15.30;;;13.35;;
16957;SDS011;8595;52.542;11.974;2023-07-29T05:12:16;13.38;;;11.80;;
16957;SDS011;8595;52.542;11.974;2023-07-29T05:14:43;15.48;;;12.25;;
16957;SDS011;8595;52.542;11.974;2023-07-29T05:17:10;15.07;;;13.57;;
16957;SDS011;8595;52.542;11.974;2023-07-29T05:19:37;17.23;;;14.30;;
16957;SDS011;8595;52.542;11.974;2023-07-29T05:22:06;14.02;;;12.63;;
16957;SDS011;8595;52.542;11.974;2023-07-29T05:24:33;15.13;;;13.63;;
16957;SDS011;8595;52.542;11.974;2023-07-29T05:27:00;14.20;;;12.65;;
16957;SDS011;8595;52.542;11.974;2023-07-29T05:29:27;14.60;;;12.63;;
16957;SDS011;8595;52.542;11.974;2023-07-29T05:31:54;13.85;;;12.55;;
16957;SDS011;8595;52.542;11.974;2023-07-29T05:34:22;16.38;;;14.50;;
16957;SDS011;8595;52.542;11.974;2023-07-29T05:36:51;14.30;;;12.80;;
16957;SDS011;8595;52.542;11.974;2023-07-29T05:39:20;13.65;;;12.23;;
16957;SDS011;8595;52.542;11.974;2023-07-29T05:41:47;15.32;;;13.82;;
16957;SDS011;8595;52.542;11.974;2023-07-29T05:44:14;19.45;;;15.25;;
16957;SDS011;8595;52.542;11.974;2023-07-29T05:46:41;14.90;;;13.02;;
16957;SDS011;8595;52.542;11.974;2023-07-29T05:49:09;15.57;;;11.07;;
16957;SDS011;8595;52.542;11.974;2023-07-29T05:51:36;15.50;;;11.55;;
16957;SDS011;8595;52.542;11.974;2023-07-29T05:54:03;11.15;;;9.98;;
16957;SDS011;8595;52.542;11.974;2023-07-29T05:56:32;9.65;;;8.65;;
16957;SDS011;8595;52.542;11.974;2023-07-29T05:58:59;12.85;;;9.68;;
16957;SDS011;8595;52.542;11.974;2023-07-29T06:01:25;8.35;;;7.55;;
16957;SDS011;8595;52.542;11.974;2023-07-29T06:03:52;10.15;;;8.50;;
16957;SDS011;8595;52.542;11.974;2023-07-29T06:06:19;10.13;;;9.23;;
16957;SDS011;8595;52.542;11.974;2023-07-29T06:08:48;9.32;;;8.43;;
16957;SDS011;8595;52.542;11.974;2023-07-29T06:11:16;9.18;;;8.27;;
16957;SDS011;8595;52.542;11.974;2023-07-29T06:13:44;10.65;;;8.90;;
16957;SDS011;8595;52.542;11.974;2023-07-29T06:16:12;8.82;;;8.00;;
16957;SDS011;8595;52.542;11.974;2023-07-29T06:18:40;7.20;;;6.50;;
16957;SDS011;8595;52.542;11.974;2023-07-29T06:21:07;8.30;;;7.05;;
16957;SDS011;8595;52.542;11.974;2023-07-29T06:23:36;8.50;;;6.75;;
16957;SDS011;8595;52.542;11.974;2023-07-29T06:26:05;9.65;;;6.63;;
16957;SDS011;8595;52.542;11.974;2023-07-29T06:28:32;8.35;;;6.70;;
16957;SDS011;8595;52.542;11.974;2023-07-29T06:31:01;6.53;;;6.03;;
16957;SDS011;8595;52.542;11.974;2023-07-29T06:33:28;6.88;;;5.88;;
16957;SDS011;8595;52.542;11.974;2023-07-29T06:35:54;5.28;;;4.40;;
16957;SDS011;8595;52.542;11.974;2023-07-29T06:38:21;5.93;;;5.43;;
16957;SDS011;8595;52.542;11.974;2023-07-29T06:40:48;6.80;;;5.47;;
16957;SDS011;8595;52.542;11.974;2023-07-29T06:43:15;7.28;;;4.70;;
16957;SDS011;8595;52.542;11.974;2023-07-29T06:45:42;5.75;;;5.25;;
16957;SDS011;8595;52.542;11.974;2023-07-29T06:48:11;6.75;;;5.18;;
16957;SDS011;8595;52.542;11.974;2023-07-29T06:50:38;6.60;;;4.85;;
16957;SDS011;8595;52.542;11.974;2023-07-29T06:53:05;5.78;;;4.82;;
16957;SDS011;8595;52.542;11.974;2023-07-29T06:55:32;6.05;;;4.53;;
16957;SDS011;8595;52.542;11.974;2023-07-29T06:57:59;5.55;;;5.05;;
16957;SDS011;8595;52.542;11.974;2023-07-29T07:00:27;6.53;;;5.15;;
16957;SDS011;8595;52.542;11.974;2023-07-29T07:02:53;6.15;;;5.55;;
16957;SDS011;8595;52.542;11.974;2023-07-29T07:05:22;7.60;;;5.25;;
16957;SDS011;8595;52.542;11.974;2023-07-29T07:07:49;5.07;;;4.57;;
16957;SDS011;8595;52.542;11.974;2023-07-29T07:10:16;4.90;;;4.50;;
16957;SDS011;8595;52.542;11.974;2023-07-29T07:12:44;7.70;;;5.38;;
16957;SDS011;8595;52.542;11.974;2023-07-29T07:15:11;5.50;;;4.95;;
16957;SDS011;8595;52.542;11.974;2023-07-29T07:17:38;6.05;;;4.32;;
16957;SDS011;8595;52.542;11.974;2023-07-29T07:20:05;6.55;;;5.38;;
16957;SDS011;8595;52.542;11.974;2023-07-29T07:22:35;4.90;;;4.50;;
16957;SDS011;8595;52.542;11.974;2023-07-29T07:25:03;8.40;;;5.43;;
16957;SDS011;8595;52.542;11.974;2023-07-29T07:27:30;6.72;;;5.05;;
16957;SDS011;8595;52.542;11.974;2023-07-29T07:30:03;4.95;;;4.43;;
16957;SDS011;8595;52.542;11.974;2023-07-29T07:32:31;5.35;;;4.85;;
16957;SDS011;8595;52.542;11.974;2023-07-29T07:34:58;7.35;;;5.97;;
16957;SDS011;8595;52.542;11.974;2023-07-29T07:37:25;6.82;;;6.22;;
16957;SDS011;8595;52.542;11.974;2023-07-29T07:39:53;5.43;;;4.93;;
16957;SDS011;8595;52.542;11.974;2023-07-29T07:42:20;7.07;;;5.05;;
16957;SDS011;8595;52.542;11.974;2023-07-29T07:44:49;4.90;;;4.03;;
16957;SDS011;8595;52.542;11.974;2023-07-29T07:47:16;5.10;;;4.60;;
16957;SDS011;8595;52.542;11.974;2023-07-29T07:49:43;6.20;;;4.82;;
16957;SDS011;8595;52.542;11.974;2023-07-29T07:52:10;4.97;;;4.57;;
16957;SDS011;8595;52.542;11.974;2023-07-29T07:54:36;4.15;;;3.80;;
16957;SDS011;8595;52.542;11.974;2023-07-29T07:57:05;7.53;;;4.15;;
16957;SDS011;8595;52.542;11.974;2023-07-29T07:59:32;6.30;;;4.03;;
16957;SDS011;8595;52.542;11.974;2023-07-29T08:01:59;4.40;;;4.00;;
16957;SDS011;8595;52.542;11.974;2023-07-29T08:04:26;5.72;;;5.22;;
16957;SDS011;8595;52.542;11.974;2023-07-29T08:06:53;5.28;;;4.78;;
16957;SDS011;8595;52.542;11.974;2023-07-29T08:09:20;5.32;;;4.80;;
16957;SDS011;8595;52.542;11.974;2023-07-29T08:11:47;6.45;;;4.90;;
16957;SDS011;8595;52.542;11.974;2023-07-29T08:14:15;6.15;;;4.63;;
16957;SDS011;8595;52.542;11.974;2023-07-29T08:16:42;5.30;;;4.40;;
16957;SDS011;8595;52.542;11.974;2023-07-29T08:19:08;4.95;;;4.53;;
16957;SDS011;8595;52.542;11.974;2023-07-29T08:21:35;4.63;;;4.18;;
16957;SDS011;8595;52.542;11.974;2023-07-29T08:24:02;4.95;;;4.55;;
16957;SDS011;8595;52.542;11.974;2023-07-29T08:26:30;5.47;;;4.97;;
16957;SDS011;8595;52.542;11.974;2023-07-29T08:28:57;4.88;;;4.43;;
16957;SDS011;8595;52.542;11.974;2023-07-29T08:31:25;6.00;;;5.10;;
16957;SDS011;8595;52.542;11.974;2023-07-29T08:33:52;5.13;;;4.57;;
16957;SDS011;8595;52.542;11.974;2023-07-29T08:36:19;8.15;;;5.40;;
16957;SDS011;8595;52.542;11.974;2023-07-29T08:38:46;5.78;;;5.25;;
16957;SDS011;8595;52.542;11.974;2023-07-29T08:41:14;5.32;;;4.78;;
16957;SDS011;8595;52.542;11.974;2023-07-29T08:43:47;4.70;;;4.30;;
16957;SDS011;8595;52.542;11.974;2023-07-29T08:46:18;5.82;;;4.53;;
16957;SDS011;8595;52.542;11.974;2023-07-29T08:48:47;5.80;;;4.50;;
16957;SDS011;8595;52.542;11.974;2023-07-29T08:51:14;6.30;;;4.15;;
16957;SDS011;8595;52.542;11.974;2023-07-29T08:53:43;4.55;;;3.92;;
16957;SDS011;8595;52.542;11.974;2023-07-29T08:56:10;5.60;;;4.43;;
16957;SDS011;8595;52.542;11.974;2023-07-29T08:58:38;6.07;;;3.97;;
16957;SDS011;8595;52.542;11.974;2023-07-29T09:01:06;4.85;;;4.38;;
16957;SDS011;8595;52.542;11.974;2023-07-29T09:03:33;6.53;;;4.97;;
16957;SDS011;8595;52.542;11.974;2023-07-29T09:06:01;4.53;;;3.78;;
16957;SDS011;8595;52.542;11.974;2023-07-29T09:08:29;4.28;;;3.95;;
16957;SDS011;8595;52.542;11.974;2023-07-29T09:10:56;5.72;;;3.50;;
16957;SDS011;8595;52.542;11.974;2023-07-29T09:13:23;10.27;;;5.07;;
16957;SDS011;8595;52.542;11.974;2023-07-29T09:15:53;4.07;;;3.78;;
16957;SDS011;8595;52.542;11.974;2023-07-29T09:18:21;4.40;;;4.00;;
16957;SDS011;8595;52.542;11.974;2023-07-29T09:20:48;6.53;;;5.43;;
16957;SDS011;8595;52.542;11.974;2023-07-29T09:23:17;6.07;;;5.43;;
16957;SDS011;8595;52.542;11.974;2023-07-29T09:25:45;5.28;;;4.82;;
16957;SDS011;8595;52.542;11.974;2023-07-29T09:28:14;4.55;;;4.15;;
16957;SDS011;8595;52.542;11.974;2023-07-29T09:30:42;10.50;;;7.00;;
16957;SDS011;8595;52.542;11.974;2023-07-29T09:33:11;13.32;;;8.52;;
16957;SDS011;8595;52.542;11.974;2023-07-29T09:35:38;25.42;;;16.83;;
16957;SDS011;8595;52.542;11.974;2023-07-29T09:38:05;21.38;;;13.50;;
16957;SDS011;8595;52.542;11.974;2023-07-29T09:40:37;17.98;;;13.60;;
16957;SDS011;8595;52.542;11.974;2023-07-29T09:43:05;25.45;;;16.98;;
16957;SDS011;8595;52.542;11.974;2023-07-29T09:45:33;22.50;;;16.88;;
16957;SDS011;8595;52.542;11.974;2023-07-29T09:48:01;15.90;;;10.68;;
16957;SDS011;8595;52.542;11.974;2023-07-29T09:50:28;10.57;;;8.93;;
16957;SDS011;8595;52.542;11.974;2023-07-29T09:52:56;7.15;;;4.18;;
16957;SDS011;8595;52.542;11.974;2023-07-29T09:55:24;5.50;;;5.00;;
16957;SDS011;8595;52.542;11.974;2023-07-29T09:57:55;4.75;;;3.17;;
16957;SDS011;8595;52.542;11.974;2023-07-29T10:00:25;7.20;;;4.45;;
16957;SDS011;8595;52.542;11.974;2023-07-29T10:02:53;5.53;;;4.68;;
16957;SDS011;8595;52.542;11.974;2023-07-29T10:05:20;4.32;;;3.92;;
16957;SDS011;8595;52.542;11.974;2023-07-29T10:07:48;4.35;;;3.95;;
16957;SDS011;8595;52.542;11.974;2023-07-29T10:10:16;4.40;;;4.00;;
16957;SDS011;8595;52.542;11.974;2023-07-29T10:12:44;5.30;;;4.28;;
16957;SDS011;8595;52.542;11.974;2023-07-29T10:15:13;4.93;;;4.43;;
16957;SDS011;8595;52.542;11.974;2023-07-29T10:17:40;5.00;;;4.55;;
16957;SDS011;8595;52.542;11.974;2023-07-29T10:20:07;6.22;;;5.63;;
16957;SDS011;8595;52.542;11.974;2023-07-29T10:22:36;6.63;;;4.40;;
16957;SDS011;8595;52.542;11.974;2023-07-29T10:25:04;4.35;;;3.95;;
16957;SDS011;8595;52.542;11.974;2023-07-29T10:27:35;4.82;;;4.43;;
16957;SDS011;8595;52.542;11.974;2023-07-29T10:30:10;4.88;;;4.47;;
16957;SDS011;8595;52.542;11.974;2023-07-29T10:32:39;5.70;;;5.13;;
16957;SDS011;8595;52.542;11.974;2023-07-29T10:35:10;4.22;;;3.85;;
16957;SDS011;8595;52.542;11.974;2023-07-29T10:37:39;4.88;;;4.38;;
16957;SDS011;8595;52.542;11.974;2023-07-29T10:40:07;3.60;;;3.30;;
16957;SDS011;8595;52.542;11.974;2023-07-29T10:42:36;4.13;;;3.70;;
16957;SDS011;8595;52.542;11.974;2023-07-29T10:45:19;3.00;;;2.80;;
16957;SDS011;8595;52.542;11.974;2023-07-29T10:47:48;4.47;;;3.33;;
16957;SDS011;8595;52.542;11.974;2023-07-29T10:50:19;5.53;;;2.88;;
16957;SDS011;8595;52.542;11.974;2023-07-29T10:52:50;2.65;;;2.40;;
16957;SDS011;8595;52.542;11.974;2023-07-29T10:55:24;3.80;;;2.33;;
16957;SDS011;8595;52.542;11.974;2023-07-29T10:58:05;3.10;;;2.90;;
16957;SDS011;8595;52.542;11.974;2023-07-29T11:00:33;8.57;;;3.45;;
16957;SDS011;8595;52.542;11.974;2023-07-29T11:03:02;3.42;;;3.13;;
16957;SDS011;8595;52.542;11.974;2023-07-29T11:05:45;3.78;;;3.47;;
16957;SDS011;8595;52.542;11.974;2023-07-29T11:08:16;3.88;;;3.58;;
16957;SDS011;8595;52.542;11.974;2023-07-29T11:10:45;3.88;;;3.50;;
16957;SDS011;8595;52.542;11.974;2023-07-29T11:13:25;3.40;;;3.20;;
16957;SDS011;8595;52.542;11.974;2023-07-29T11:15:53;4.72;;;4.32;;
16957;SDS011;8595;52.542;11.974;2023-07-29T11:18:24;3.17;;;2.78;;
16957;SDS011;8595;52.542;11.974;2023-07-29T11:20:53;3.20;;;2.90;;
16957;SDS011;8595;52.542;11.974;2023-07-29T11:23:21;4.13;;;2.90;;
16957;SDS011;8595;52.542;11.974;2023-07-29T11:25:55;3.22;;;2.90;;
16957;SDS011;8595;52.542;11.974;2023-07-29T11:28:23;3.95;;;3.03;;
16957;SDS011;8595;52.542;11.974;2023-07-29T11:30:50;3.17;;;2.90;;
16957;SDS011;8595;52.542;11.974;2023-07-29T11:33:18;3.90;;;3.40;;
16957;SDS011;8595;52.542;11.974;2023-07-29T11:35:47;2.80;;;2.58;;
16957;SDS011;8595;52.542;11.974;2023-07-29T11:38:15;3.30;;;2.60;;
16957;SDS011;8595;52.542;11.974;2023-07-29T11:40:43;3.08;;;2.50;;
16957;SDS011;8595;52.542;11.974;2023-07-29T11:43:19;3.30;;;3.00;;
16957;SDS011;8595;52.542;11.974;2023-07-29T11:45:46;5.22;;;3.85;;
16957;SDS011;8595;52.542;11.974;2023-07-29T11:48:13;2.60;;;2.40;;
16957;SDS011;8595;52.542;11.974;2023-07-29T11:50:40;2.55;;;2.10;;
16957;SDS011;8595;52.542;11.974;2023-07-29T11:53:08;3.35;;;2.85;;
16957;SDS011;8595;52.542;11.974;2023-07-29T11:55:37;2.85;;;2.25;;
16957;SDS011;8595;52.542;11.974;2023-07-29T11:58:04;3.03;;;2.80;;
16957;SDS011;8595;52.542;11.974;2023-07-29T12:00:31;6.78;;;2.85;;
16957;SDS011;8595;52.542;11.974;2023-07-29T12:02:59;2.95;;;2.70;;
16957;SDS011;8595;52.542;11.974;2023-07-29T12:05:26;4.05;;;2.60;;
16957;SDS011;8595;52.542;11.974;2023-07-29T12:07:54;2.55;;;2.00;;
16957;SDS011;8595;52.542;11.974;2023-07-29T12:10:22;3.67;;;2.20;;
16957;SDS011;8595;52.542;11.974;2023-07-29T12:12:49;3.72;;;2.47;;
16957;SDS011;8595;52.542;11.974;2023-07-29T12:15:23;2.17;;;1.90;;
16957;SDS011;8595;52.542;11.974;2023-07-29T12:17:52;3.97;;;2.13;;
16957;SDS011;8595;52.542;11.974;2023-07-29T12:20:22;2.35;;;2.15;;
16957;SDS011;8595;52.542;11.974;2023-07-29T12:22:52;2.60;;;2.10;;
16957;SDS011;8595;52.542;11.974;2023-07-29T12:25:19;1.90;;;1.80;;
16957;SDS011;8595;52.542;11.974;2023-07-29T12:27:48;1.80;;;1.70;;
16957;SDS011;8595;52.542;11.974;2023-07-29T12:30:15;1.67;;;1.50;;
16957;SDS011;8595;52.542;11.974;2023-07-29T12:32:45;1.92;;;1.70;;
16957;SDS011;8595;52.542;11.974;2023-07-29T12:35:13;2.00;;;1.90;;
16957;SDS011;8595;52.542;11.974;2023-07-29T12:37:40;1.80;;;1.70;;
16957;SDS011;8595;52.542;11.974;2023-07-29T12:40:08;4.47;;;1.85;;
16957;SDS011;8595;52.542;11.974;2023-07-29T12:42:48;2.40;;;2.00;;
16957;SDS011;8595;52.542;11.974;2023-07-29T12:45:16;1.90;;;1.80;;
16957;SDS011;8595;52.542;11.974;2023-07-29T12:47:43;3.10;;;2.00;;
16957;SDS011;8595;52.542;11.974;2023-07-29T12:50:10;2.60;;;2.28;;
16957;SDS011;8595;52.542;11.974;2023-07-29T12:52:37;6.55;;;2.13;;
16957;SDS011;8595;52.542;11.974;2023-07-29T12:55:05;2.58;;;2.38;;
16957;SDS011;8595;52.542;11.974;2023-07-29T12:57:35;2.65;;;2.30;;
16957;SDS011;8595;52.542;11.974;2023-07-29T13:00:02;2.70;;;2.50;;
16957;SDS011;8595;52.542;11.974;2023-07-29T13:02:29;4.32;;;2.70;;
16957;SDS011;8595;52.542;11.974;2023-07-29T13:04:57;5.35;;;2.50;;
16957;SDS011;8595;52.542;11.974;2023-07-29T13:07:24;3.17;;;2.40;;
16957;SDS011;8595;52.542;11.974;2023-07-29T13:09:51;2.47;;;2.20;;
16957;SDS011;8595;52.542;11.974;2023-07-29T13:12:17;2.40;;;2.20;;
16957;SDS011;8595;52.542;11.974;2023-07-29T13:14:46;2.90;;;2.60;;
16957;SDS011;8595;52.542;11.974;2023-07-29T13:17:13;3.10;;;2.90;;
16957;SDS011;8595;52.542;11.974;2023-07-29T13:19:40;3.20;;;2.60;;
16957;SDS011;8595;52.542;11.974;2023-07-29T13:22:07;4.70;;;2.97;;
16957;SDS011;8595;52.542;11.974;2023-07-29T13:24:35;3.17;;;2.97;;
16957;SDS011;8595;52.542;11.974;2023-07-29T13:27:02;7.13;;;3.22;;
16957;SDS011;8595;52.542;11.974;2023-07-29T13:29:31;3.92;;;3.63;;
16957;SDS011;8595;52.542;11.974;2023-07-29T13:32:00;5.00;;;3.60;;
16957;SDS011;8595;52.542;11.974;2023-07-29T13:34:27;3.63;;;3.33;;
16957;SDS011;8595;52.542;11.974;2023-07-29T13:36:54;4.32;;;3.83;;
16957;SDS011;8595;52.542;11.974;2023-07-29T13:39:21;5.60;;;3.30;;
16957;SDS011;8595;52.542;11.974;2023-07-29T13:41:48;5.07;;;3.50;;
16957;SDS011;8595;52.542;11.974;2023-07-29T13:44:15;4.85;;;3.30;;
16957;SDS011;8595;52.542;11.974;2023-07-29T13:46:42;5.60;;;3.25;;
16957;SDS011;8595;52.542;11.974;2023-07-29T13:49:11;3.20;;;2.80;;
16957;SDS011;8595;52.542;11.974;2023-07-29T13:51:38;6.43;;;3.30;;
16957;SDS011;8595;52.542;11.974;2023-07-29T13:54:05;6.60;;;3.47;;
16957;SDS011;8595;52.542;11.974;2023-07-29T13:56:32;4.25;;;3.83;;
16957;SDS011;8595;52.542;11.974;2023-07-29T13:59:00;4.32;;;3.92;;
16957;SDS011;8595;52.542;11.974;2023-07-29T14:01:26;3.88;;;3.47;;
16957;SDS011;8595;52.542;11.974;2023-07-29T14:03:54;4.80;;;3.83;;
16957;SDS011;8595;52.542;11.974;2023-07-29T14:06:22;5.97;;;3.95;;
16957;SDS011;8595;52.542;11.974;2023-07-29T14:08:49;6.80;;;3.75;;
16957;SDS011;8595;52.542;11.974;2023-07-29T14:11:16;4.07;;;2.75;;
16957;SDS011;8595;52.542;11.974;2023-07-29T14:13:42;4.38;;;3.10;;
16957;SDS011;8595;52.542;11.974;2023-07-29T14:16:10;3.10;;;2.80;;
16957;SDS011;8595;52.542;11.974;2023-07-29T14:18:36;3.30;;;2.50;;
16957;SDS011;8595;52.542;11.974;2023-07-29T14:21:04;5.07;;;2.45;;
16957;SDS011;8595;52.542;11.974;2023-07-29T14:23:32;3.10;;;2.20;;
16957;SDS011;8595;52.542;11.974;2023-07-29T14:25:59;2.83;;;2.05;;
16957;SDS011;8595;52.542;11.974;2023-07-29T14:28:26;4.75;;;2.70;;
16957;SDS011;8595;52.542;11.974;2023-07-29T14:30:53;2.30;;;2.10;;
16957;SDS011;8595;52.542;11.974;2023-07-29T14:33:20;3.45;;;2.60;;
16957;SDS011;8595;52.542;11.974;2023-07-29T14:35:47;2.53;;;2.30;;
16957;SDS011;8595;52.542;11.974;2023-07-29T14:38:13;4.25;;;2.58;;
16957;SDS011;8595;52.542;11.974;2023-07-29T14:40:42;4.78;;;2.92;;
16957;SDS011;8595;52.542;11.974;2023-07-29T14:43:08;3.15;;;2.85;;
16957;SDS011;8595;52.542;11.974;2023-07-29T14:45:35;3.53;;;2.60;;